Time;durP1;ratioP1;P1;durP2;ratioP2;P2;SDS_P1;SDS_P2;PMS_P1;PMS_P2;Temp;Humidity;BMP_temperature;BMP_pressure;BME280_temperature;BME280_humidity;BME280_pressure;Samples;Min_cycle;Max_cycle;Signal;HPM_P1;HPM_P2
2024/01/28 00:02:30;;;;;;;11.43;5.50;;;14.50;75.40;;;;;;4202971;28;20051;-37
2024/01/28 00:05:11;;;;;;;10.88;5.28;;;14.40;76.30;;;;;;4204542;28;20055;-37
2024/01/28 00:07:53;;;;;;;15.68;5.65;;;14.40;75.30;;;;;;4204445;28;20185;-37
2024/01/28 00:10:34;;;;;;;11.07;5.55;;;14.40;75.50;;;;;;4204602;28;20547;-36
2024/01/28 00:13:18;;;;;;;13.43;5.70;;;14.40;75.60;;;;;;4204746;28;20058;-37
2024/01/28 00:16:01;;;;;;;12.23;5.30;;;14.40;75.60;;;;;;4204355;28;20075;-37
2024/01/28 00:18:43;;;;;;;17.88;5.90;;;14.40;75.60;;;;;;4204678;28;20047;-37
2024/01/28 00:21:24;;;;;;;12.85;6.03;;;14.40;75.60;;;;;;4210921;27;20116;-36
2024/01/28 00:24:06;;;;;;;13.60;5.47;;;14.40;75.50;;;;;;4218695;27;20124;-37
2024/01/28 00:26:47;;;;;;;12.07;6.47;;;14.40;75.70;;;;;;4205076;27;20055;-37
2024/01/28 00:29:29;;;;;;;14.45;5.57;;;14.40;75.70;;;;;;4204796;28;20098;-36
2024/01/28 00:32:11;;;;;;;11.57;5.68;;;14.30;75.60;;;;;;4204558;28;20070;-37
2024/01/28 00:34:52;;;;;;;11.60;5.45;;;14.40;75.60;;;;;;4204090;28;20093;-37
2024/01/28 00:37:33;;;;;;;12.70;5.45;;;14.30;75.50;;;;;;4204456;28;20046;-36
2024/01/28 00:40:15;;;;;;;9.35;5.53;;;14.30;76.40;;;;;;4204552;28;20209;-37
2024/01/28 00:42:56;;;;;;;11.00;5.18;;;14.30;75.60;;;;;;4187354;28;20189;-36
2024/01/28 00:45:41;;;;;;;11.18;6.32;;;14.30;75.60;;;;;;4187406;28;20209;-36
2024/01/28 00:48:23;;;;;;;8.73;4.85;;;14.30;75.70;;;;;;4187801;28;20055;-37
2024/01/28 00:51:04;;;;;;;13.80;4.80;;;14.30;75.80;;;;;;4204501;28;20402;-36
2024/01/28 00:53:45;;;;;;;8.80;5.18;;;14.30;75.80;;;;;;4204541;28;20101;-36
2024/01/28 00:56:26;;;;;;;13.10;5.90;;;14.20;75.70;;;;;;4204623;28;20051;-36
2024/01/28 00:59:07;;;;;;;11.70;5.35;;;14.20;75.80;;;;;;4203814;28;20154;-36
2024/01/28 01:01:49;;;;;;;13.70;5.57;;;14.20;75.90;;;;;;4205477;27;20193;-36
2024/01/28 01:04:31;;;;;;;11.68;5.35;;;14.20;75.90;;;;;;4208624;27;20117;-37
2024/01/28 01:07:12;;;;;;;16.42;6.28;;;14.20;75.90;;;;;;4203827;28;20055;-47
2024/01/28 01:09:53;;;;;;;12.48;5.22;;;14.20;75.90;;;;;;4204080;28;20548;-45
2024/01/28 01:12:34;;;;;;;11.68;4.78;;;14.10;75.80;;;;;;4204158;28;20055;-45
2024/01/28 01:15:15;;;;;;;16.13;5.43;;;14.20;75.90;;;;;;4203936;28;20567;-45
2024/01/28 01:17:56;;;;;;;10.88;5.45;;;14.20;76.00;;;;;;4204074;28;20055;-44
2024/01/28 01:20:39;;;;;;;;;;;14.10;76.00;;;;;;4211025;27;20418;-46
2024/01/28 01:23:20;;;;;;;14.30;6.78;;;14.10;76.10;;;;;;4218258;27;19962;-46
2024/01/28 01:26:01;;;;;;;14.25;5.05;;;14.10;76.90;;;;;;4221030;27;20090;-46
2024/01/28 01:28:42;;;;;;;12.50;5.43;;;14.10;76.70;;;;;;4204082;28;20179;-45
2024/01/28 01:31:24;;;;;;;14.13;5.05;;;14.10;76.50;;;;;;4202202;28;20510;-46
2024/01/28 01:34:05;;;;;;;13.57;5.18;;;14.10;76.40;;;;;;4203670;28;20047;-47
2024/01/28 01:36:47;;;;;;;10.75;5.60;;;14.10;76.40;;;;;;4213830;28;20055;-44
2024/01/28 01:39:28;;;;;;;9.50;4.80;;;14.00;76.20;;;;;;4203432;28;20116;-44
2024/01/28 01:42:09;;;;;;;8.93;4.88;;;14.10;76.20;;;;;;4203851;28;20130;-44
2024/01/28 01:44:51;;;;;;;14.50;5.32;;;14.10;76.20;;;;;;4203076;28;20055;-45
2024/01/28 01:47:32;;;;;;;13.52;5.78;;;14.10;77.60;;;;;;4203676;28;20596;-45
2024/01/28 01:50:13;;;;;;;11.23;5.10;;;14.20;77.90;;;;;;4203689;28;20694;-43
2024/01/28 01:52:55;;;;;;;12.20;5.15;;;14.30;77.50;;;;;;4206940;28;20047;-43
2024/01/28 01:55:38;;;;;;;12.25;4.93;;;14.50;77.10;;;;;;4189906;28;20417;-43
2024/01/28 01:58:19;;;;;;;10.27;4.72;;;14.50;76.80;;;;;;4188617;28;20055;-44
2024/01/28 02:01:02;;;;;;;12.52;5.75;;;14.70;76.60;;;;;;4189925;28;20051;-44
2024/01/28 02:03:44;;;;;;;11.32;5.20;;;14.80;76.00;;;;;;4189888;28;20491;-44
2024/01/28 02:06:27;;;;;;;11.85;5.22;;;14.80;75.50;;;;;;4206865;27;20051;-45
2024/01/28 02:09:09;;;;;;;11.02;4.60;;;14.90;75.20;;;;;;4206284;27;20051;-47
2024/01/28 02:11:50;;;;;;;10.55;4.88;;;14.90;74.90;;;;;;4206313;27;20071;-46
2024/01/28 02:14:32;;;;;;;9.13;5.13;;;14.90;74.90;;;;;;4206367;28;20517;-36
2024/01/28 02:17:13;;;;;;;9.45;5.00;;;14.90;75.10;;;;;;4206640;28;20051;-36
2024/01/28 02:19:54;;;;;;;9.88;5.07;;;14.90;75.00;;;;;;4206678;28;20067;-36
2024/01/28 02:22:35;;;;;;;11.50;5.53;;;14.90;74.80;;;;;;4206458;28;20075;-44
2024/01/28 02:25:17;;;;;;;9.65;5.15;;;15.00;74.80;;;;;;4207548;28;20059;-45
2024/01/28 02:27:59;;;;;;;8.70;5.38;;;15.00;74.30;;;;;;4206632;28;20456;-45
2024/01/28 02:30:40;;;;;;;13.65;6.78;;;15.00;74.30;;;;;;4189601;27;20085;-45
2024/01/28 02:33:21;;;;;;;14.10;5.50;;;15.00;74.40;;;;;;4189707;28;20063;-47
2024/01/28 02:36:02;;;;;;;10.75;5.70;;;15.00;74.30;;;;;;4188323;28;20051;-45
2024/01/28 02:38:43;;;;;;;11.93;5.82;;;15.10;74.40;;;;;;4192160;27;20071;-44
2024/01/28 02:41:26;;;;;;;10.75;5.95;;;15.10;74.30;;;;;;4207855;27;20055;-47
2024/01/28 02:44:07;;;;;;;12.75;5.88;;;15.10;74.30;;;;;;4222882;27;20062;-46
2024/01/28 02:46:48;;;;;;;10.90;5.75;;;15.10;74.20;;;;;;4223223;27;20127;-46
2024/01/28 02:49:29;;;;;;;11.98;6.15;;;15.10;73.80;;;;;;4223100;27;20054;-49
2024/01/28 02:52:09;;;;;;;13.07;5.10;;;15.10;73.80;;;;;;4223168;27;20077;-45
2024/01/28 02:54:51;;;;;;;18.92;7.38;;;15.20;73.90;;;;;;4210307;27;20088;-48
2024/01/28 02:57:33;;;;;;;14.27;5.82;;;15.20;73.90;;;;;;4206235;28;20185;-47
2024/01/28 03:00:16;;;;;;;9.63;5.70;;;15.30;73.60;;;;;;4205881;28;20128;-44
2024/01/28 03:02:58;;;;;;;12.23;5.40;;;15.30;73.10;;;;;;4221338;27;20422;-43
2024/01/28 03:05:39;;;;;;;11.63;5.80;;;15.30;73.00;;;;;;4222848;27;20128;-44
2024/01/28 03:08:20;;;;;;;11.50;5.40;;;15.30;72.80;;;;;;4222868;27;20055;-44
2024/01/28 03:11:01;;;;;;;13.07;5.57;;;15.20;72.90;;;;;;4205815;28;20177;-43
2024/01/28 03:13:43;;;;;;;11.85;5.95;;;15.30;73.10;;;;;;4221261;27;20091;-36
2024/01/28 03:16:25;;;;;;;11.52;5.35;;;15.40;73.00;;;;;;4222355;27;20116;-36
2024/01/28 03:19:06;;;;;;;10.13;5.50;;;15.40;72.70;;;;;;4222178;27;20628;-36
2024/01/28 03:21:48;;;;;;;13.70;6.90;;;15.50;72.50;;;;;;4215462;27;20059;-36
2024/01/28 03:24:29;;;;;;;10.73;5.60;;;15.50;72.40;;;;;;4187502;28;20052;-46
2024/01/28 03:27:10;;;;;;;15.23;6.28;;;15.50;72.20;;;;;;4188516;28;20060;-44
2024/01/28 03:29:52;;;;;;;14.15;6.03;;;15.50;72.10;;;;;;4190126;27;20093;-46
2024/01/28 03:32:34;;;;;;;11.18;5.60;;;15.50;72.20;;;;;;4194710;27;20054;-49
2024/01/28 03:35:15;;;;;;;11.88;5.40;;;15.40;72.20;;;;;;4205888;28;20055;-44
2024/01/28 03:37:55;;;;;;;11.20;5.78;;;15.30;72.40;;;;;;4202689;28;20055;-46
2024/01/28 03:40:36;;;;;;;11.68;5.35;;;15.30;72.40;;;;;;4206284;28;20129;-36
2024/01/28 03:43:17;;;;;;;9.48;5.35;;;15.20;72.80;;;;;;4205153;28;20059;-37
2024/01/28 03:46:00;;;;;;;13.55;5.90;;;15.20;72.80;;;;;;4205390;28;20047;-37
2024/01/28 03:48:41;;;;;;;12.48;6.50;;;15.20;72.80;;;;;;4209743;27;20406;-37
2024/01/28 03:51:22;;;;;;;13.35;6.50;;;15.20;72.70;;;;;;4214153;27;20051;-36
2024/01/28 03:54:03;;;;;;;13.57;6.50;;;15.20;72.60;;;;;;4187369;28;20060;-46
2024/01/28 03:56:44;;;;;;;19.42;6.45;;;15.10;72.70;;;;;;4204657;28;20104;-45
2024/01/28 03:59:25;;;;;;;12.93;6.90;;;15.10;73.00;;;;;;4204069;28;20067;-48
2024/01/28 04:02:08;;;;;;;15.60;6.35;;;15.10;73.10;;;;;;4204631;28;20058;-46
2024/01/28 04:04:49;;;;;;;12.20;5.88;;;15.10;73.40;;;;;;4220003;27;20050;-43
2024/01/28 04:07:30;;;;;;;11.23;5.97;;;15.20;73.50;;;;;;4220184;27;20054;-45
2024/01/28 04:10:15;;;;;;;14.73;6.55;;;15.30;73.10;;;;;;4222012;27;20071;-48
2024/01/28 04:12:56;;;;;;;11.68;6.32;;;15.40;72.60;;;;;;4221153;27;20410;-44
2024/01/28 04:15:37;;;;;;;13.65;6.60;;;15.40;72.30;;;;;;4209439;27;20059;-46
2024/01/28 04:18:19;;;;;;;11.67;5.63;;;15.50;72.00;;;;;;4204937;28;20588;-45
2024/01/28 04:21:00;;;;;;;8.77;5.43;;;15.50;71.80;;;;;;4204622;28;20054;-44
2024/01/28 04:23:41;;;;;;;13.10;6.03;;;15.40;71.70;;;;;;4205100;28;20102;-36
2024/01/28 04:26:23;;;;;;;10.63;5.43;;;15.40;72.00;;;;;;4204658;28;20043;-36
2024/01/28 04:29:04;;;;;;;13.55;5.50;;;15.40;72.20;;;;;;4221564;27;20058;-36
2024/01/28 04:31:45;;;;;;;11.23;6.10;;;15.50;72.10;;;;;;4204793;28;20059;-37
2024/01/28 04:34:28;;;;;;;10.35;5.90;;;15.50;71.80;;;;;;4204673;27;20407;-37
2024/01/28 04:37:09;;;;;;;11.85;6.03;;;15.50;71.60;;;;;;4205118;27;20063;-36
2024/01/28 04:39:50;;;;;;;10.93;5.70;;;15.50;71.80;;;;;;4204232;27;20074;-36
2024/01/28 04:42:31;;;;;;;12.90;6.22;;;15.60;71.90;;;;;;4204406;27;20508;-35
2024/01/28 04:45:12;;;;;;;8.88;5.32;;;15.70;71.60;;;;;;4203280;27;20100;-35
2024/01/28 04:47:53;;;;;;;11.07;5.30;;;15.90;71.10;;;;;;4221309;27;20051;-36
2024/01/28 04:50:36;;;;;;;8.88;5.20;;;15.90;70.70;;;;;;4220228;27;20054;-36
2024/01/28 04:53:17;;;;;;;14.05;6.28;;;16.00;70.70;;;;;;4218517;27;20054;-36
2024/01/28 04:55:58;;;;;;;8.82;5.88;;;16.00;70.30;;;;;;4204559;28;20050;-36
2024/01/28 04:58:39;;;;;;;10.32;5.13;;;16.10;69.90;;;;;;4204298;28;20729;-36
2024/01/28 05:01:20;;;;;;;12.88;5.57;;;16.10;69.60;;;;;;4204419;28;20537;-36
2024/01/28 05:04:01;;;;;;;10.13;5.57;;;16.10;69.40;;;;;;4191837;27;20052;-36
2024/01/28 05:06:44;;;;;;;9.85;5.72;;;16.10;69.50;;;;;;4201277;27;20059;-36
2024/01/28 05:09:26;;;;;;;9.77;5.78;;;16.10;69.40;;;;;;4204085;28;20067;-45
2024/01/28 05:12:07;;;;;;;9.40;5.47;;;16.10;69.30;;;;;;4204199;28;20046;-36
2024/01/28 05:14:49;;;;;;;11.77;5.55;;;16.10;69.20;;;;;;4211139;27;20047;-36
2024/01/28 05:17:30;;;;;;;14.23;5.63;;;16.00;69.20;;;;;;4203505;28;20055;-36
2024/01/28 05:20:12;;;;;;;11.70;6.38;;;16.00;70.10;;;;;;4220968;27;20066;-36
2024/01/28 05:22:59;;;;;;;12.23;5.10;;;15.90;69.70;;;;;;4221379;27;20050;-36
2024/01/28 05:25:40;;;;;;;13.85;5.70;;;16.00;70.20;;;;;;4215359;27;20063;-36
2024/01/28 05:28:21;;;;;;;8.27;5.32;;;16.00;69.90;;;;;;4213831;27;20059;-36
2024/01/28 05:31:02;;;;;;;10.88;5.78;;;16.00;69.60;;;;;;4219219;27;20046;-36
2024/01/28 05:33:45;;;;;;;11.00;5.28;;;16.10;69.50;;;;;;4223878;27;20050;-36
2024/01/28 05:36:26;;;;;;;12.68;6.07;;;16.20;69.20;;;;;;4223217;28;21293;-46
2024/01/28 05:39:09;;;;;;;12.43;5.18;;;16.20;68.90;;;;;;4224948;27;20406;-45
2024/01/28 05:41:50;;;;;;;10.35;5.10;;;16.20;68.80;;;;;;4220702;27;20050;-44
2024/01/28 05:44:30;;;;;;;13.18;5.45;;;16.20;68.80;;;;;;4208057;28;20047;-44
2024/01/28 05:47:12;;;;;;;8.38;4.97;;;16.10;68.70;;;;;;4207743;28;20059;-42
2024/01/28 05:49:53;;;;;;;10.70;5.40;;;16.10;68.90;;;;;;4207354;28;20132;-42
2024/01/28 05:52:34;;;;;;;11.05;5.70;;;16.00;69.00;;;;;;4206927;28;20051;-43
2024/01/28 05:55:16;;;;;;;10.20;5.22;;;16.10;69.50;;;;;;4207029;27;20100;-44
2024/01/28 05:57:57;;;;;;;12.15;5.82;;;16.10;69.50;;;;;;4206989;28;20100;-44
2024/01/28 06:00:38;;;;;;;11.93;5.43;;;16.10;69.10;;;;;;4190455;28;20070;-43
2024/01/28 06:03:19;;;;;;;10.88;5.65;;;16.20;68.80;;;;;;4208752;27;20055;-44
2024/01/28 06:06:01;;;;;;;11.88;5.38;;;16.20;68.50;;;;;;4207139;28;20050;-43
2024/01/28 06:08:42;;;;;;;8.10;4.85;;;16.20;68.40;;;;;;4207202;28;20124;-43
2024/01/28 06:11:25;;;;;;;10.27;5.30;;;16.20;68.60;;;;;;4206768;28;20112;-46
2024/01/28 06:14:06;;;;;;;11.45;5.68;;;16.30;68.40;;;;;;4207549;27;20051;-48
2024/01/28 06:16:47;;;;;;;11.70;5.30;;;16.20;68.00;;;;;;4207008;27;20182;-44
2024/01/28 06:19:28;;;;;;;8.55;4.93;;;16.20;67.90;;;;;;4207206;27;20051;-43
2024/01/28 06:22:10;;;;;;;9.57;5.82;;;16.20;68.20;;;;;;4216071;27;20097;-45
2024/01/28 06:24:51;;;;;;;8.65;5.45;;;16.20;68.50;;;;;;4206482;28;20055;-44
2024/01/28 06:27:33;;;;;;;12.07;6.28;;;16.20;68.50;;;;;;4220176;27;20045;-44
2024/01/28 06:30:15;;;;;;;9.57;5.10;;;16.30;67.40;;;;;;4223485;27;20054;-44
2024/01/28 06:32:55;;;;;;;10.20;5.32;;;16.40;67.20;;;;;;4192328;28;20056;-45
2024/01/28 06:35:36;;;;;;;9.85;5.53;;;16.30;67.10;;;;;;4206166;28;20051;-44
2024/01/28 06:38:18;;;;;;;8.55;5.30;;;16.30;67.30;;;;;;4220236;27;20046;-44
2024/01/28 06:40:59;;;;;;;;;;;16.30;67.90;;;;;;4211595;27;20043;-45
2024/01/28 06:43:41;;;;;;;13.20;5.40;;;16.30;67.80;;;;;;4206261;28;20008;-46
2024/01/28 06:46:22;;;;;;;12.02;5.60;;;16.30;67.80;;;;;;4206732;28;20047;-44
2024/01/28 06:49:03;;;;;;;11.18;5.32;;;16.30;67.30;;;;;;4206831;28;20051;-45
2024/01/28 06:51:44;;;;;;;8.00;5.60;;;16.30;68.20;;;;;;4206119;28;20411;-44
2024/01/28 06:54:26;;;;;;;15.05;5.80;;;16.30;67.50;;;;;;4206401;28;20062;-45
2024/01/28 06:57:07;;;;;;;12.40;5.63;;;16.30;67.20;;;;;;4212327;27;20415;-46
2024/01/28 06:59:49;;;;;;;10.82;5.65;;;16.40;67.60;;;;;;4207429;28;20122;-43
2024/01/28 07:02:30;;;;;;;10.23;5.80;;;16.40;67.40;;;;;;4216897;27;21347;-44
2024/01/28 07:05:11;;;;;;;14.13;5.38;;;16.40;67.30;;;;;;4206116;28;20078;-45
2024/01/28 07:07:52;;;;;;;10.43;5.30;;;16.30;67.30;;;;;;4215833;27;20059;-45
2024/01/28 07:10:33;;;;;;;11.75;5.18;;;16.30;67.50;;;;;;4206262;28;20539;-45
2024/01/28 07:13:14;;;;;;;10.48;5.60;;;16.30;67.90;;;;;;4205575;28;20059;-46
2024/01/28 07:15:56;;;;;;;10.50;5.70;;;16.40;67.50;;;;;;4205988;28;20051;-47
2024/01/28 07:18:37;;;;;;;13.93;5.70;;;16.40;67.30;;;;;;4205862;28;20544;-46
2024/01/28 07:21:18;;;;;;;11.82;5.40;;;16.40;67.20;;;;;;4213584;27;20046;-43
2024/01/28 07:23:59;;;;;;;9.85;4.93;;;16.40;67.30;;;;;;4209511;27;20055;-47
2024/01/28 07:26:41;;;;;;;13.38;5.72;;;16.40;67.40;;;;;;4205511;28;20058;-48
2024/01/28 07:29:23;;;;;;;8.70;5.55;;;16.40;67.40;;;;;;4205868;28;20059;-47
2024/01/28 07:32:05;;;;;;;9.60;5.90;;;16.40;67.10;;;;;;4205213;28;20055;-48
2024/01/28 07:34:47;;;;;;;7.35;5.22;;;16.40;66.90;;;;;;4205788;28;20521;-45
2024/01/28 07:37:29;;;;;;;11.68;5.55;;;16.40;66.90;;;;;;4206746;28;20074;-45
2024/01/28 07:40:11;;;;;;;10.57;5.50;;;16.30;67.00;;;;;;4205480;28;20514;-43
2024/01/28 07:42:55;;;;;;;9.02;5.47;;;16.30;67.10;;;;;;4205608;28;20154;-43
2024/01/28 07:45:37;;;;;;;11.35;5.85;;;16.30;66.90;;;;;;4205349;28;20217;-44
2024/01/28 07:48:19;;;;;;;10.20;5.80;;;16.30;67.00;;;;;;4205100;28;20096;-45
2024/01/28 07:51:00;;;;;;;15.20;6.22;;;16.30;67.20;;;;;;4205114;28;20097;-42
2024/01/28 07:53:41;;;;;;;10.63;5.18;;;16.20;67.20;;;;;;4215599;28;20383;-42
2024/01/28 07:56:26;;;;;;;10.07;6.05;;;16.30;67.30;;;;;;4205328;28;20506;-42
2024/01/28 07:59:07;;;;;;;10.43;5.35;;;16.20;67.90;;;;;;4204987;28;20125;-42
2024/01/28 08:01:48;;;;;;;9.90;4.97;;;16.10;67.00;;;;;;4203535;27;20105;-43
2024/01/28 08:04:31;;;;;;;9.15;5.03;;;16.10;67.10;;;;;;4204975;28;20129;-43
2024/01/28 08:07:13;;;;;;;10.95;5.53;;;16.10;67.00;;;;;;4208986;27;20534;-36
2024/01/28 08:09:54;;;;;;;9.27;5.78;;;16.10;66.90;;;;;;4216931;27;20492;-36
2024/01/28 08:12:35;;;;;;;11.63;5.13;;;16.10;66.60;;;;;;4208828;27;20161;-36
2024/01/28 08:15:17;;;;;;;10.23;5.32;;;16.20;66.30;;;;;;4218702;27;20099;-36
2024/01/28 08:17:58;;;;;;;6.85;5.13;;;16.30;66.40;;;;;;4221898;27;20157;-35
2024/01/28 08:20:40;;;;;;;7.13;5.13;;;16.30;66.10;;;;;;4220866;27;20120;-40
2024/01/28 08:23:21;;;;;;;11.02;4.97;;;16.30;65.90;;;;;;4206971;27;20050;-40
2024/01/28 08:26:02;;;;;;;10.30;5.15;;;16.30;65.50;;;;;;4220003;27;20059;-42
2024/01/28 08:28:43;;;;;;;9.95;5.20;;;16.30;65.50;;;;;;4220296;27;20050;-40
2024/01/28 08:31:24;;;;;;;8.93;4.75;;;16.20;65.30;;;;;;4218091;27;20051;-40
2024/01/28 08:34:06;;;;;;;13.75;5.72;;;16.10;65.60;;;;;;4188988;28;20059;-42
2024/01/28 08:36:48;;;;;;;10.15;5.47;;;16.10;65.70;;;;;;4213434;27;20055;-42
2024/01/28 08:39:30;;;;;;;8.05;4.50;;;16.20;65.70;;;;;;4219896;27;20047;-44
2024/01/28 08:42:11;;;;;;;6.32;4.35;;;16.20;65.60;;;;;;4221429;27;20116;-39
2024/01/28 08:44:53;;;;;;;9.75;5.35;;;16.10;65.70;;;;;;4204741;28;20078;-41
2024/01/28 08:47:33;;;;;;;9.68;5.35;;;16.00;66.70;;;;;;4204524;28;20065;-42
2024/01/28 08:50:15;;;;;;;8.45;4.78;;;16.10;66.80;;;;;;4204571;28;20063;-41
2024/01/28 08:52:57;;;;;;;8.57;4.88;;;16.10;66.40;;;;;;4207252;27;20650;-42
2024/01/28 08:55:38;;;;;;;9.52;4.90;;;16.00;65.60;;;;;;4210174;27;20054;-42
2024/01/28 08:58:19;;;;;;;7.57;4.70;;;16.00;65.40;;;;;;4221082;27;20064;-41
2024/01/28 09:01:01;;;;;;;7.15;4.80;;;15.90;65.20;;;;;;4220903;27;20047;-42
2024/01/28 09:03:42;;;;;;;11.48;4.60;;;15.80;65.10;;;;;;4220634;27;20085;-35
2024/01/28 09:06:23;;;;;;;9.50;4.50;;;15.80;65.50;;;;;;4219673;27;20391;-36
2024/01/28 09:09:08;;;;;;;10.43;4.70;;;15.70;65.80;;;;;;4220302;27;20072;-36
2024/01/28 09:11:49;;;;;;;6.60;4.20;;;15.70;65.90;;;;;;4219602;27;20383;-36
2024/01/28 09:14:34;;;;;;;12.90;4.90;;;15.70;65.70;;;;;;4220865;27;20494;-36
2024/01/28 09:17:15;;;;;;;5.13;3.90;;;15.70;65.50;;;;;;4221006;27;20085;-35
2024/01/28 09:19:59;;;;;;;8.50;3.92;;;15.70;65.80;;;;;;4221086;27;20100;-42
2024/01/28 09:22:40;;;;;;;7.72;3.85;;;15.70;65.60;;;;;;4220661;27;20051;-43
2024/01/28 09:25:22;;;;;;;7.47;3.78;;;15.70;65.30;;;;;;4221147;27;20074;-36
2024/01/28 09:28:03;;;;;;;11.05;4.60;;;15.70;65.40;;;;;;4222641;27;20050;-36
2024/01/28 09:30:44;;;;;;;6.80;4.00;;;15.70;65.60;;;;;;4223697;27;20046;-35
2024/01/28 09:33:26;;;;;;;;;;;15.70;65.60;;;;;;4238254;27;20501;-35
2024/01/28 09:36:07;;;;;;;8.98;4.20;;;15.90;65.00;;;;;;4238255;27;19972;-36
2024/01/28 09:38:48;;;;;;;;;;;16.00;64.30;;;;;;4238539;27;20176;-36
2024/01/28 09:41:43;;;;;;;6.82;3.45;;;16.10;63.60;;;;;;4222656;27;20328;-35
2024/01/28 09:44:24;;;;;;;8.80;4.68;;;16.50;63.10;;;;;;4219283;27;20406;-36
2024/01/28 09:47:06;;;;;;;6.88;3.58;;;17.00;61.40;;;;;;4221198;27;20066;-36
2024/01/28 09:49:48;;;;;;;5.82;3.78;;;17.60;59.80;;;;;;4220800;27;20055;-36
2024/01/28 09:52:29;;;;;;;6.38;3.63;;;18.20;58.30;;;;;;4219681;27;20174;-36
2024/01/28 09:55:10;;;;;;;4.85;3.40;;;18.60;57.10;;;;;;4220352;27;20074;-36
2024/01/28 09:57:52;;;;;;;4.57;3.25;;;19.00;56.00;;;;;;4207903;28;20055;-36
2024/01/28 10:00:33;;;;;;;5.85;3.13;;;19.30;55.20;;;;;;4203969;28;20047;-36
2024/01/28 10:03:14;;;;;;;5.40;3.75;;;19.50;54.60;;;;;;4203821;28;20059;-36
2024/01/28 10:05:55;;;;;;;6.63;3.45;;;19.70;54.20;;;;;;4203572;28;20055;-36
2024/01/28 10:08:36;;;;;;;7.68;3.60;;;19.70;53.70;;;;;;4204180;28;20058;-36
2024/01/28 10:11:20;;;;;;;3.88;3.05;;;19.60;53.90;;;;;;4203432;28;20042;-36
2024/01/28 10:14:02;;;;;;;10.77;3.53;;;19.50;54.40;;;;;;4210196;27;20058;-36
2024/01/28 10:16:46;;;;;;;5.97;3.50;;;19.30;54.90;;;;;;4223241;27;20478;-36
2024/01/28 10:19:28;;;;;;;6.47;3.97;;;19.20;55.20;;;;;;4224088;27;20047;-35
2024/01/28 10:22:09;;;;;;;7.22;2.88;;;19.10;55.30;;;;;;4221110;27;20501;-35
2024/01/28 10:24:52;;;;;;;4.50;3.42;;;19.10;55.20;;;;;;4206810;28;20086;-35
2024/01/28 10:27:33;;;;;;;5.63;3.22;;;19.10;55.30;;;;;;4206236;28;20063;-35
2024/01/28 10:30:18;;;;;;;8.35;3.03;;;19.20;55.10;;;;;;4206333;28;20063;-36
2024/01/28 10:32:59;;;;;;;5.90;3.00;;;19.20;55.30;;;;;;4206782;28;20117;-36
2024/01/28 10:35:40;;;;;;;4.63;3.20;;;19.20;55.10;;;;;;4205127;28;20055;-36
2024/01/28 10:38:25;;;;;;;6.28;3.38;;;19.30;54.90;;;;;;4207055;28;20051;-36
2024/01/28 10:41:06;;;;;;;7.30;3.00;;;19.30;54.80;;;;;;4206269;27;20043;-36
2024/01/28 10:43:58;;;;;;;3.28;2.75;;;19.40;54.30;;;;;;4204969;28;20055;-36
2024/01/28 10:46:44;;;;;;;4.68;2.78;;;19.40;54.20;;;;;;4205915;28;20079;-37
2024/01/28 10:49:32;;;;;;;4.15;2.65;;;19.40;54.30;;;;;;4211761;27;20066;-36
2024/01/28 10:52:15;;;;;;;6.65;3.63;;;19.50;54.10;;;;;;4223108;27;20046;-36
2024/01/28 10:54:56;;;;;;;7.05;2.88;;;19.50;54.20;;;;;;4222691;27;20055;-36
2024/01/28 10:57:38;;;;;;;3.72;2.80;;;19.50;54.30;;;;;;4223728;27;20135;-35
2024/01/28 11:00:20;;;;;;;6.18;2.83;;;19.50;54.30;;;;;;4221937;27;20046;-35
2024/01/28 11:03:07;;;;;;;7.10;3.30;;;19.50;54.20;;;;;;4222339;27;20055;-36
2024/01/28 11:05:48;;;;;;;5.47;3.03;;;19.50;54.10;;;;;;4206847;28;20094;-36
2024/01/28 11:08:30;;;;;;;4.28;2.85;;;19.60;54.00;;;;;;4205914;28;20055;-36
2024/01/28 11:11:11;;;;;;;;;;;19.60;54.00;;;;;;4207162;28;20133;-36
2024/01/28 11:13:52;;;;;;;6.05;2.65;;;19.60;54.10;;;;;;4205436;27;19927;-36
2024/01/28 11:16:33;;;;;;;3.17;2.47;;;19.60;54.10;;;;;;4190541;27;20515;-36
2024/01/28 11:19:16;;;;;;;5.63;2.92;;;19.60;53.70;;;;;;4218983;27;20183;-36
2024/01/28 11:21:59;;;;;;;3.83;2.80;;;19.70;53.50;;;;;;4222242;27;20054;-36
2024/01/28 11:24:48;;;;;;;2.92;2.15;;;19.70;53.70;;;;;;4221964;27;20399;-36
2024/01/28 11:27:30;;;;;;;4.45;2.22;;;19.60;53.30;;;;;;4222566;27;20046;-36
2024/01/28 11:30:12;;;;;;;4.63;2.30;;;19.60;53.40;;;;;;4222690;27;20147;-36
2024/01/28 11:32:58;;;;;;;3.50;2.63;;;19.60;53.60;;;;;;4222445;27;20109;-36
2024/01/28 11:35:43;;;;;;;6.78;2.45;;;19.60;53.70;;;;;;4204455;28;20104;-35
2024/01/28 11:38:26;;;;;;;4.70;2.03;;;19.60;53.80;;;;;;4205821;28;20075;-36
2024/01/28 11:41:10;;;;;;;4.45;1.83;;;19.60;54.00;;;;;;4205721;28;20101;-36
2024/01/28 11:43:51;;;;;;;3.70;2.25;;;19.70;53.90;;;;;;4205973;28;20051;-36
2024/01/28 11:46:33;;;;;;;4.70;2.30;;;19.70;53.90;;;;;;4205395;27;20066;-36
2024/01/28 11:49:14;;;;;;;3.80;1.88;;;19.80;54.00;;;;;;4212311;27;20405;-36
2024/01/28 11:51:56;;;;;;;3.33;1.90;;;19.80;53.80;;;;;;4205078;27;20074;-37
2024/01/28 11:54:38;;;;;;;5.20;2.22;;;19.80;53.80;;;;;;4188755;28;20055;-36
2024/01/28 11:57:19;;;;;;;9.38;3.20;;;19.90;53.80;;;;;;4187804;28;20169;-36
2024/01/28 12:00:00;;;;;;;4.80;1.77;;;19.90;54.60;;;;;;4202917;27;20360;-37
2024/01/28 12:02:42;;;;;;;4.00;2.38;;;19.80;54.50;;;;;;4221769;27;20152;-36
2024/01/28 12:05:24;;;;;;;5.35;2.17;;;19.90;54.60;;;;;;4222494;27;20088;-42
2024/01/28 12:08:07;;;;;;;3.13;1.92;;;19.90;54.30;;;;;;4221366;27;20046;-43
2024/01/28 12:10:57;;;;;;;3.03;2.72;;;19.90;54.20;;;;;;4204319;27;20043;-42
2024/01/28 12:13:38;;;;;;;2.65;2.28;;;20.00;54.20;;;;;;4187055;28;20056;-43
2024/01/28 12:16:20;;;;;;;3.42;1.83;;;20.00;54.10;;;;;;4188336;27;20517;-43
2024/01/28 12:19:00;;;;;;;2.63;1.85;;;19.90;53.90;;;;;;4194582;27;20666;-43
2024/01/28 12:21:42;;;;;;;3.95;2.30;;;19.90;54.20;;;;;;4191616;28;20431;-43
2024/01/28 12:24:25;;;;;;;2.88;2.03;;;19.80;54.20;;;;;;4190652;27;20063;-43
2024/01/28 12:27:06;;;;;;;2.20;1.90;;;19.70;54.50;;;;;;4221846;27;20050;-42
2024/01/28 12:29:47;;;;;;;2.75;1.98;;;19.60;54.70;;;;;;4200324;27;20058;-42
2024/01/28 12:32:28;;;;;;;3.08;2.08;;;19.60;55.10;;;;;;4217044;27;20050;-43
2024/01/28 12:35:10;;;;;;;2.17;1.67;;;19.50;55.30;;;;;;4221292;27;20513;-43
2024/01/28 12:37:50;;;;;;;2.50;1.73;;;19.30;55.40;;;;;;4221616;27;20068;-43
2024/01/28 12:40:33;;;;;;;2.88;1.85;;;19.20;55.60;;;;;;4212416;27;20051;-43
2024/01/28 12:43:14;;;;;;;2.58;1.95;;;19.00;55.90;;;;;;4221550;27;20050;-43
2024/01/28 12:45:55;;;;;;;3.03;1.90;;;18.90;56.40;;;;;;4204720;28;20436;-43
2024/01/28 12:48:36;;;;;;;1.85;1.75;;;18.80;57.10;;;;;;4204830;28;20120;-42
2024/01/28 12:51:17;;;;;;;3.50;1.80;;;18.80;57.60;;;;;;4205901;27;20521;-43
2024/01/28 12:53:58;;;;;;;3.03;2.00;;;18.80;57.40;;;;;;4215621;27;20192;-42
2024/01/28 12:56:40;;;;;;;5.15;2.58;;;18.90;58.00;;;;;;4221101;27;20046;-44
2024/01/28 12:59:21;;;;;;;3.15;1.80;;;18.90;57.40;;;;;;4217138;27;20054;-41
2024/01/28 13:02:04;;;;;;;2.67;1.98;;;19.00;57.20;;;;;;4218759;27;20080;-42
2024/01/28 13:04:44;;;;;;;3.55;2.05;;;18.90;57.40;;;;;;4209831;27;20058;-44
2024/01/28 13:07:25;;;;;;;5.22;2.03;;;19.00;57.70;;;;;;4217378;27;20054;-43
2024/01/28 13:10:08;;;;;;;4.43;2.20;;;19.00;57.70;;;;;;4207658;27;20047;-42
2024/01/28 13:12:51;;;;;;;3.88;2.10;;;19.00;57.60;;;;;;4206267;28;20399;-36
2024/01/28 13:15:31;;;;;;;3.38;2.00;;;19.00;57.40;;;;;;4209458;27;20592;-36
2024/01/28 13:18:13;;;;;;;2.53;1.88;;;19.00;57.70;;;;;;4200350;27;20427;-36
2024/01/28 13:21:00;;;;;;;3.45;2.05;;;18.90;57.80;;;;;;4204901;27;20054;-36
2024/01/28 13:23:42;;;;;;;4.07;1.90;;;18.80;58.10;;;;;;4208708;27;20051;-36
2024/01/28 13:26:23;;;;;;;3.47;2.25;;;18.70;58.20;;;;;;4203377;27;20055;-37
2024/01/28 13:29:06;;;;;;;2.97;1.95;;;18.60;58.40;;;;;;4232053;27;20152;-37
2024/01/28 13:31:47;;;;;;;2.22;2.05;;;18.50;58.50;;;;;;4235879;27;20053;-49
2024/01/28 13:34:28;;;;;;;3.30;2.03;;;18.30;59.00;;;;;;4202215;28;20411;-47
2024/01/28 13:37:09;;;;;;;5.60;2.10;;;18.20;59.30;;;;;;4202261;28;20079;-48
2024/01/28 13:39:51;;;;;;;2.95;2.33;;;18.10;59.50;;;;;;4204114;28;20055;-49
2024/01/28 13:42:32;;;;;;;4.53;2.53;;;18.00;59.70;;;;;;4195837;27;20432;-48
2024/01/28 13:45:14;;;;;;;5.35;2.05;;;17.90;60.80;;;;;;4219914;27;20100;-47
2024/01/28 13:47:56;;;;;;;3.30;2.20;;;17.90;60.20;;;;;;4221631;27;20078;-51
2024/01/28 13:50:36;;;;;;;4.53;2.08;;;17.80;60.50;;;;;;4215804;27;20043;-46
2024/01/28 13:53:17;;;;;;;3.05;2.20;;;17.60;60.70;;;;;;4222342;27;20074;-48
2024/01/28 13:55:59;;;;;;;4.07;2.30;;;17.60;60.90;;;;;;4223436;27;20047;-48
2024/01/28 13:58:39;;;;;;;;;;;17.50;60.90;;;;;;4223455;27;20054;-50